Time;durP1;ratioP1;P1;durP2;ratioP2;P2;SDS_P1;SDS_P2;PMS_P1;PMS_P2;Temp;Humidity;BMP_temperature;BMP_pressure;BME280_temperature;BME280_humidity;BME280_pressure;Samples;Min_cycle;Max_cycle;Signal;HPM_P1;HPM_P2
2024/04/20 00:01:04;;;;;;;8.30;3.47;;;4.50;1.00;;;;;;5491924;26;20228;-44
2024/04/20 00:03:30;;;;;;;7.57;3.27;;;4.50;1.00;;;;;;5491564;26;20568;-44
2024/04/20 00:05:55;;;;;;;9.37;3.50;;;4.60;1.00;;;;;;5491805;26;20287;-44
2024/04/20 00:08:21;;;;;;;5.43;3.17;;;4.60;1.00;;;;;;5492081;26;20221;-44
2024/04/20 00:10:46;;;;;;;6.97;3.87;;;4.60;1.00;;;;;;5490391;26;20360;-44
2024/04/20 00:13:12;;;;;;;6.40;2.80;;;4.60;1.00;;;;;;5492157;26;20228;-43
2024/04/20 00:15:41;;;;;;;7.73;3.47;;;4.60;1.00;;;;;;5491754;26;20280;-44
2024/04/20 00:18:07;;;;;;;6.23;2.40;;;4.60;1.00;;;;;;5490164;26;20285;-44
2024/04/20 00:20:33;;;;;;;4.03;2.73;;;4.60;1.00;;;;;;5488702;26;20461;-43
2024/04/20 00:22:59;;;;;;;5.77;2.53;;;4.60;1.00;;;;;;5490823;26;20557;-43
2024/04/20 00:25:25;;;;;;;7.63;3.23;;;4.70;1.00;;;;;;5490378;26;20484;-44
2024/04/20 00:27:51;;;;;;;6.50;2.80;;;4.70;1.00;;;;;;5456428;26;20453;-43
2024/04/20 00:30:17;;;;;;;5.10;2.50;;;4.70;1.00;;;;;;5489170;26;20792;-43
2024/04/20 00:32:43;;;;;;;3.90;2.07;;;4.60;1.00;;;;;;5490288;26;20286;-43
2024/04/20 00:35:11;;;;;;;9.43;3.17;;;4.60;1.00;;;;;;5458267;26;20225;-44
2024/04/20 00:37:37;;;;;;;4.80;2.00;;;4.60;1.00;;;;;;5491277;26;20645;-43
2024/04/20 00:40:03;;;;;;;5.20;2.87;;;4.60;1.00;;;;;;5490974;26;20889;-43
2024/04/20 00:42:28;;;;;;;5.80;3.00;;;4.60;1.00;;;;;;5490734;26;20457;-44
2024/04/20 00:44:54;;;;;;;6.40;2.10;;;4.60;1.00;;;;;;5492154;26;20314;-43
2024/04/20 00:47:20;;;;;;;8.83;2.83;;;4.60;1.00;;;;;;5491583;26;20320;-44
2024/04/20 00:49:46;;;;;;;14.20;4.07;;;4.50;1.00;;;;;;5491786;26;20228;-44
2024/04/20 00:52:11;;;;;;;7.30;2.80;;;4.60;1.00;;;;;;5459412;26;20232;-44
2024/04/20 00:54:37;;;;;;;7.73;2.60;;;4.60;1.00;;;;;;5491915;26;20735;-44
2024/04/20 00:57:04;;;;;;;8.20;2.90;;;4.60;1.00;;;;;;5459379;26;20332;-44
2024/04/20 00:59:31;;;;;;;6.43;2.80;;;4.50;1.00;;;;;;5491726;26;20486;-44
2024/04/20 01:01:57;;;;;;;7.30;2.70;;;4.50;1.00;;;;;;5491332;26;20544;-43
2024/04/20 01:04:22;;;;;;;7.10;2.87;;;4.50;1.00;;;;;;5491739;26;20457;-44
2024/04/20 01:06:48;;;;;;;5.13;2.57;;;4.50;1.00;;;;;;5491157;26;20328;-44
2024/04/20 01:09:14;;;;;;;4.93;2.60;;;4.50;1.00;;;;;;5490663;26;20462;-43
2024/04/20 01:11:39;;;;;;;7.77;3.30;;;4.50;1.00;;;;;;5491319;26;20204;-43
2024/04/20 01:14:05;;;;;;;6.47;3.07;;;4.50;1.00;;;;;;5491319;26;20517;-44
2024/04/20 01:16:31;;;;;;;6.60;3.90;;;4.50;1.00;;;;;;5458815;26;20337;-43
2024/04/20 01:18:57;;;;;;;3.40;2.70;;;4.40;1.00;;;;;;5490420;26;20225;-44
2024/04/20 01:21:23;;;;;;;7.80;3.00;;;4.40;1.00;;;;;;5459073;26;20217;-44
2024/04/20 01:23:53;;;;;;;8.23;2.93;;;4.50;1.00;;;;;;5491089;26;20505;-44
2024/04/20 01:26:18;;;;;;;4.60;2.70;;;4.50;1.00;;;;;;5490664;26;20577;-44
2024/04/20 01:28:44;;;;;;;4.70;2.53;;;4.50;1.00;;;;;;5490196;26;20462;-44
2024/04/20 01:31:10;;;;;;;11.30;3.93;;;4.50;1.00;;;;;;5491147;26;20272;-44
2024/04/20 01:33:36;;;;;;;8.97;3.27;;;4.50;1.00;;;;;;5490909;26;20232;-44
2024/04/20 01:36:02;;;;;;;5.97;2.83;;;4.50;1.00;;;;;;5491293;26;20217;-44
2024/04/20 01:38:27;;;;;;;7.60;2.93;;;4.40;1.00;;;;;;5490955;26;20247;-44
2024/04/20 01:40:53;;;;;;;4.97;3.40;;;4.40;1.00;;;;;;5490685;26;20272;-44
2024/04/20 01:43:19;;;;;;;8.23;2.67;;;4.40;1.00;;;;;;5490661;26;20232;-44
2024/04/20 01:45:44;;;;;;;6.57;2.60;;;4.40;1.00;;;;;;5490506;26;20507;-44
2024/04/20 01:48:11;;;;;;;10.50;3.07;;;4.40;1.00;;;;;;5488143;26;20233;-43
2024/04/20 01:50:36;;;;;;;5.73;2.23;;;4.40;1.00;;;;;;5488331;26;20217;-44
2024/04/20 01:53:03;;;;;;;6.30;2.73;;;4.40;1.00;;;;;;5487664;26;20544;-44
2024/04/20 01:55:29;;;;;;;3.53;2.50;;;4.30;1.00;;;;;;5487606;26;20378;-44
2024/04/20 01:57:54;;;;;;;3.83;2.23;;;4.30;1.00;;;;;;5489105;26;20708;-44
2024/04/20 02:00:20;;;;;;;9.00;2.40;;;4.30;1.00;;;;;;5489035;26;20271;-44
2024/04/20 02:02:46;;;;;;;5.47;2.17;;;4.30;1.00;;;;;;5491115;26;20217;-44
2024/04/20 02:05:12;;;;;;;8.73;2.60;;;4.30;1.00;;;;;;5490873;26;20332;-44
2024/04/20 02:07:38;;;;;;;7.10;2.30;;;4.20;1.00;;;;;;5490522;26;20440;-43
2024/04/20 02:10:05;;;;;;;8.40;2.50;;;4.20;1.00;;;;;;5489618;26;20509;-44
2024/04/20 02:12:31;;;;;;;8.57;2.70;;;4.20;1.00;;;;;;5490534;26;20541;-44
2024/04/20 02:14:56;;;;;;;5.00;2.30;;;4.20;1.00;;;;;;5490930;26;20442;-44
2024/04/20 02:17:25;;;;;;;5.13;2.33;;;4.20;1.00;;;;;;5491129;26;20756;-44
2024/04/20 02:19:50;;;;;;;11.37;2.20;;;4.20;1.00;;;;;;5490218;26;20253;-43
2024/04/20 02:22:16;;;;;;;6.27;2.40;;;4.10;1.00;;;;;;5490569;26;20506;-43
2024/04/20 02:24:41;;;;;;;6.87;2.17;;;4.10;1.00;;;;;;5490571;26;20360;-44
2024/04/20 02:27:07;;;;;;;6.50;2.13;;;4.10;1.00;;;;;;5490778;26;20603;-43
2024/04/20 02:29:33;;;;;;;6.20;2.30;;;4.10;1.00;;;;;;5490347;26;20216;-44
2024/04/20 02:31:58;;;;;;;4.80;2.33;;;4.20;1.00;;;;;;5490682;26;20236;-43
2024/04/20 02:34:39;;;;;;;4.90;1.97;;;4.20;1.00;;;;;;5490369;26;20233;-43
2024/04/20 02:37:11;;;;;;;5.60;2.30;;;4.20;1.00;;;;;;5490091;26;20533;-44
2024/04/20 02:39:38;;;;;;;7.53;2.27;;;4.10;1.00;;;;;;5490009;26;20883;-44
2024/04/20 02:42:04;;;;;;;6.87;2.53;;;4.10;1.00;;;;;;5490612;26;20433;-44
2024/04/20 02:44:30;;;;;;;3.23;1.90;;;4.20;1.00;;;;;;5490237;26;20445;-44
2024/04/20 02:46:56;;;;;;;7.97;2.10;;;4.10;1.00;;;;;;5490403;26;20507;-44
2024/04/20 02:49:22;;;;;;;5.97;2.87;;;4.10;1.00;;;;;;5489601;26;20604;-44
2024/04/20 02:51:48;;;;;;;4.03;2.10;;;4.10;1.00;;;;;;5490321;26;20293;-44
2024/04/20 02:54:14;;;;;;;9.33;2.30;;;4.10;1.00;;;;;;5491034;26;20694;-44
2024/04/20 02:56:40;;;;;;;9.87;2.60;;;4.10;1.00;;;;;;5493636;26;20339;-44
2024/04/20 02:59:06;;;;;;;5.23;2.47;;;4.10;1.00;;;;;;5493681;26;20532;-44
2024/04/20 03:01:31;;;;;;;3.23;2.40;;;4.10;1.00;;;;;;5492441;26;20282;-44
2024/04/20 03:03:57;;;;;;;5.57;2.33;;;4.10;1.00;;;;;;5493487;26;20659;-44
2024/04/20 03:06:23;;;;;;;5.60;2.60;;;4.10;1.00;;;;;;5493166;26;20228;-43
2024/04/20 03:08:52;;;;;;;3.00;1.97;;;4.10;1.00;;;;;;5493593;26;20228;-43
2024/04/20 03:11:18;;;;;;;4.27;2.27;;;4.10;1.00;;;;;;5493579;26;20447;-44
2024/04/20 03:13:44;;;;;;;4.03;2.23;;;4.10;1.00;;;;;;5492301;26;20556;-44
2024/04/20 03:16:09;;;;;;;5.30;2.70;;;4.10;1.00;;;;;;5492591;26;20875;-43
2024/04/20 03:18:35;;;;;;;5.53;2.47;;;4.00;1.00;;;;;;5491616;26;20228;-43
2024/04/20 03:21:07;;;;;;;4.77;2.47;;;4.00;1.00;;;;;;5492912;26;20236;-43
2024/04/20 03:23:33;;;;;;;6.33;2.53;;;3.90;1.00;;;;;;5492725;26;20489;-44
2024/04/20 03:25:59;;;;;;;4.40;2.20;;;3.90;1.00;;;;;;5492670;26;20672;-44
2024/04/20 03:28:25;;;;;;;10.73;5.50;;;3.80;1.00;;;;;;5492116;26;20510;-44
2024/04/20 03:30:50;;;;;;;3.80;2.57;;;3.80;1.00;;;;;;5492448;26;20457;-44
2024/04/20 03:33:21;;;;;;;6.60;2.40;;;3.70;1.00;;;;;;5460349;26;20512;-43
2024/04/20 03:35:47;;;;;;;5.23;3.50;;;3.70;1.00;;;;;;5493454;26;20213;-44
2024/04/20 03:38:12;;;;;;;6.60;3.20;;;3.70;1.00;;;;;;5493031;26;20494;-44
2024/04/20 03:40:38;;;;;;;11.43;3.53;;;3.70;1.00;;;;;;5460952;26;20280;-44
2024/04/20 03:43:04;;;;;;;6.33;3.30;;;3.70;1.00;;;;;;5492615;26;20311;-44
2024/04/20 03:45:30;;;;;;;6.60;2.97;;;3.70;1.00;;;;;;5491945;26;20279;-44
2024/04/20 03:47:56;;;;;;;7.93;2.50;;;3.70;1.00;;;;;;5491892;26;20438;-44
2024/04/20 03:50:25;;;;;;;5.40;2.70;;;3.70;1.00;;;;;;5493481;26;20779;-44
2024/04/20 03:52:51;;;;;;;12.57;4.13;;;3.70;1.00;;;;;;5492950;26;20241;-44
2024/04/20 03:55:18;;;;;;;6.00;2.77;;;3.70;1.00;;;;;;5491859;26;20750;-44
2024/04/20 03:57:46;;;;;;;5.77;3.10;;;3.60;1.00;;;;;;5492218;26;20233;-44
2024/04/20 04:00:12;;;;;;;6.30;3.00;;;3.60;1.00;;;;;;5492110;26;20524;-44
2024/04/20 04:02:38;;;;;;;5.07;2.67;;;3.60;1.00;;;;;;5492245;26;20457;-44
2024/04/20 04:05:04;;;;;;;6.43;2.70;;;3.60;1.00;;;;;;5491984;26;20690;-44
2024/04/20 04:07:31;;;;;;;6.10;3.10;;;3.60;1.00;;;;;;5491504;26;20575;-45
2024/04/20 04:09:56;;;;;;;8.80;2.93;;;3.70;1.00;;;;;;5489970;26;20848;-44
2024/04/20 04:12:22;;;;;;;7.33;3.27;;;3.60;1.00;;;;;;5488341;26;20445;-44
2024/04/20 04:14:48;;;;;;;4.63;2.43;;;3.70;1.00;;;;;;5488958;26;20206;-44
2024/04/20 04:17:14;;;;;;;6.70;3.03;;;3.60;1.00;;;;;;5491237;26;20252;-44
2024/04/20 04:19:40;;;;;;;8.30;3.43;;;3.60;1.00;;;;;;5491859;26;20902;-44
2024/04/20 04:22:05;;;;;;;6.90;2.80;;;3.60;1.00;;;;;;5491438;26;20237;-44
2024/04/20 04:24:31;;;;;;;5.27;2.90;;;3.70;1.00;;;;;;5457642;26;20233;-44
2024/04/20 04:27:14;;;;;;;3.67;2.27;;;3.70;1.00;;;;;;5492643;26;20244;-44
2024/04/20 04:29:42;;;;;;;5.20;2.70;;;3.70;1.00;;;;;;5491738;26;20443;-44
2024/04/20 04:32:09;;;;;;;6.63;2.73;;;3.70;1.00;;;;;;5492090;26;20497;-44
2024/04/20 04:34:38;;;;;;;7.13;2.63;;;3.70;1.00;;;;;;5490956;26;20763;-44
2024/04/20 04:37:04;;;;;;;11.50;2.80;;;3.80;1.00;;;;;;5491292;26;20512;-44
2024/04/20 04:39:30;;;;;;;4.90;2.70;;;3.80;1.00;;;;;;5490234;26;20506;-44
2024/04/20 04:41:56;;;;;;;6.00;2.50;;;3.80;1.00;;;;;;5490936;26;20860;-43
2024/04/20 04:44:22;;;;;;;7.80;2.87;;;3.80;1.00;;;;;;5489146;26;20494;-44
2024/04/20 04:46:47;;;;;;;6.87;2.83;;;3.90;1.00;;;;;;5486891;26;20321;-44
2024/04/20 04:49:13;;;;;;;4.70;2.80;;;3.90;1.00;;;;;;5488151;26;20687;-45
2024/04/20 04:51:38;;;;;;;3.33;2.57;;;3.90;1.00;;;;;;5490196;26;20298;-44
2024/04/20 04:54:04;;;;;;;4.87;2.50;;;3.90;1.00;;;;;;5491075;26;20256;-44
2024/04/20 04:56:30;;;;;;;7.73;3.23;;;4.00;1.00;;;;;;5491335;26;20214;-44
2024/04/20 04:58:58;;;;;;;5.50;2.80;;;3.90;1.00;;;;;;5491870;26;20450;-44
2024/04/20 05:01:23;;;;;;;4.50;2.50;;;4.00;1.00;;;;;;5490445;26;20224;-44
2024/04/20 05:03:49;;;;;;;7.70;3.63;;;4.00;1.00;;;;;;5485995;26;20923;-44
2024/04/20 05:06:14;;;;;;;5.27;2.80;;;4.00;1.00;;;;;;5484724;26;20576;-44
2024/04/20 05:08:40;;;;;;;5.03;2.90;;;4.00;1.00;;;;;;5482328;26;20213;-44
2024/04/20 05:11:06;;;;;;;6.93;3.50;;;4.00;1.00;;;;;;5485997;26;20232;-44
2024/04/20 05:13:31;;;;;;;4.43;3.67;;;4.00;1.00;;;;;;5486422;26;20263;-44
2024/04/20 05:15:57;;;;;;;7.17;3.87;;;4.10;1.00;;;;;;5486567;26;20233;-44
2024/04/20 05:18:23;;;;;;;4.73;3.77;;;4.10;1.00;;;;;;5485275;26;20229;-43
2024/04/20 05:20:50;;;;;;;4.30;2.90;;;4.10;1.00;;;;;;5482870;26;20280;-44
2024/04/20 05:23:15;;;;;;;5.80;3.53;;;4.20;1.00;;;;;;5453677;26;20446;-44
2024/04/20 05:25:42;;;;;;;7.17;3.30;;;4.20;1.00;;;;;;5486066;26;20454;-44
2024/04/20 05:28:08;;;;;;;10.73;3.73;;;4.20;1.00;;;;;;5485971;26;20279;-44
2024/04/20 05:30:33;;;;;;;6.20;4.00;;;4.30;1.00;;;;;;5483911;26;20704;-44
2024/04/20 05:32:59;;;;;;;5.93;3.10;;;4.30;1.00;;;;;;5486766;26;20267;-44
2024/04/20 05:35:24;;;;;;;7.20;3.73;;;4.30;1.00;;;;;;5487728;26;20217;-44
2024/04/20 05:37:50;;;;;;;5.83;3.17;;;4.40;1.00;;;;;;5489941;26;20744;-44
2024/04/20 05:40:16;;;;;;;4.10;2.77;;;4.50;1.00;;;;;;5490137;26;20267;-44
2024/04/20 05:42:41;;;;;;;11.87;4.30;;;4.50;1.00;;;;;;5490549;26;20631;-44
2024/04/20 05:45:07;;;;;;;5.90;3.30;;;4.60;1.00;;;;;;5489879;26;20282;-43
2024/04/20 05:47:33;;;;;;;4.23;3.00;;;4.60;1.00;;;;;;5489285;26;20475;-44
2024/04/20 05:49:58;;;;;;;4.33;2.80;;;4.70;1.00;;;;;;5489543;26;20279;-44
2024/04/20 05:52:24;;;;;;;7.17;5.07;;;4.60;1.00;;;;;;5487861;26;20738;-43
2024/04/20 05:54:50;;;;;;;6.10;4.90;;;4.60;1.00;;;;;;5490097;26;20337;-44
2024/04/20 05:57:15;;;;;;;6.30;5.20;;;4.70;1.00;;;;;;5490424;26;20240;-44
2024/04/20 05:59:41;;;;;;;4.47;2.80;;;4.90;1.00;;;;;;5490243;26;20442;-44
2024/04/20 06:02:07;;;;;;;4.03;2.90;;;5.10;99.90;;;;;;5488743;26;20487;-44
2024/04/20 06:04:32;;;;;;;6.30;5.30;;;5.50;99.90;;;;;;5490254;26;20232;-44
2024/04/20 06:06:58;;;;;;;4.47;2.80;;;5.80;99.90;;;;;;5489340;26;20516;-44
2024/04/20 06:09:24;;;;;;;7.20;3.07;;;6.00;99.90;;;;;;5487746;26;20319;-44
2024/04/20 06:11:50;;;;;;;5.23;3.70;;;6.00;94.60;;;;;;5486679;26;20263;-44
2024/04/20 06:14:17;;;;;;;3.90;3.40;;;5.80;99.90;;;;;;5489164;26;20312;-44
2024/04/20 06:16:43;;;;;;;4.83;3.50;;;5.80;61.90;;;;;;5488708;26;20465;-44
2024/04/20 06:19:09;;;;;;;3.83;3.50;;;5.90;1.00;;;;;;5490316;26;20458;-44
2024/04/20 06:21:34;;;;;;;4.87;3.10;;;5.90;30.40;;;;;;5490601;26;20457;-44
2024/04/20 06:24:00;;;;;;;4.00;3.27;;;6.10;1.00;;;;;;5490095;26;20213;-44
2024/04/20 06:26:26;;;;;;;3.80;2.93;;;6.20;1.00;;;;;;5457351;26;20251;-44
2024/04/20 06:28:52;;;;;;;4.47;2.67;;;6.10;1.00;;;;;;5487231;26;20236;-44
2024/04/20 06:31:18;;;;;;;4.20;2.53;;;6.00;1.00;;;;;;5485976;26;20508;-44
2024/04/20 06:33:44;;;;;;;6.67;2.67;;;6.00;1.00;;;;;;5486208;26;20458;-43
2024/04/20 06:36:09;;;;;;;5.60;2.60;;;6.20;1.00;;;;;;5485825;26;20224;-44
2024/04/20 06:38:35;;;;;;;4.33;2.87;;;6.30;1.00;;;;;;5487536;26;20525;-44
2024/04/20 06:41:01;;;;;;;3.50;2.20;;;6.50;1.00;;;;;;5488540;26;20359;-44
2024/04/20 06:43:27;;;;;;;2.93;2.40;;;6.70;99.90;;;;;;5489365;26;20270;-45
2024/04/20 06:45:53;;;;;;;4.00;1.83;;;6.80;99.90;;;;;;5488650;26;20450;-44
2024/04/20 06:48:19;;;;;;;4.33;2.90;;;6.90;99.90;;;;;;5457433;26;20263;-44
2024/04/20 06:50:45;;;;;;;3.63;2.60;;;6.90;99.90;;;;;;5489787;26;20438;-44
2024/04/20 06:53:11;;;;;;;4.03;2.20;;;7.10;1.00;;;;;;5490056;26;20233;-44
2024/04/20 06:55:37;;;;;;;4.73;2.50;;;7.10;99.90;;;;;;5487183;26;20668;-44
2024/04/20 06:58:03;;;;;;;2.13;1.80;;;7.40;99.90;;;;;;5486980;26;20517;-44
2024/04/20 07:00:28;;;;;;;5.57;2.50;;;7.70;1.00;;;;;;5486630;26;20615;-44
2024/04/20 07:02:54;;;;;;;4.67;2.43;;;7.80;1.00;;;;;;5488099;26;20389;-44
2024/04/20 07:05:20;;;;;;;5.97;2.47;;;8.00;36.30;;;;;;5489284;26;20217;-44
2024/04/20 07:07:45;;;;;;;3.93;2.43;;;8.00;99.90;;;;;;5489577;26;20457;-44
2024/04/20 07:10:11;;;;;;;4.73;2.83;;;8.00;99.90;;;;;;5489758;26;20267;-44
2024/04/20 07:12:36;;;;;;;4.67;2.73;;;8.20;1.00;;;;;;5489850;26;20280;-44
2024/04/20 07:15:02;;;;;;;3.23;2.50;;;8.40;99.90;;;;;;5486091;26;20509;-44
2024/04/20 07:17:28;;;;;;;4.67;3.70;;;8.60;1.00;;;;;;5486757;26;20318;-44
2024/04/20 07:19:54;;;;;;;6.37;5.40;;;8.70;1.00;;;;;;5488874;26;20283;-44
2024/04/20 07:22:19;;;;;;;8.30;5.87;;;8.80;99.90;;;;;;5489700;26;20229;-43
2024/04/20 07:24:45;;;;;;;4.53;3.77;;;8.90;99.90;;;;;;5485323;26;20458;-45
2024/04/20 07:27:11;;;;;;;3.93;3.20;;;9.20;1.00;;;;;;5487061;26;20655;-44
2024/04/20 07:29:36;;;;;;;4.13;3.00;;;9.30;1.00;;;;;;5488419;26;20228;-44
2024/04/20 07:32:02;;;;;;;4.40;3.63;;;9.20;1.00;;;;;;5489396;26;20228;-43
2024/04/20 07:34:29;;;;;;;5.70;3.93;;;9.00;1.00;;;;;;5487613;26;20608;-44
2024/04/20 07:36:55;;;;;;;7.50;5.97;;;8.80;99.90;;;;;;5453804;26;20240;-44
2024/04/20 07:39:20;;;;;;;13.00;9.20;;;8.60;34.00;;;;;;5486596;26;20568;-44
2024/04/20 07:41:46;;;;;;;13.67;12.13;;;8.40;99.90;;;;;;5488464;26;20536;-44
2024/04/20 07:44:12;;;;;;;8.87;6.30;;;8.50;1.00;;;;;;5491232;26;20325;-44
2024/04/20 07:46:38;;;;;;;8.60;4.47;;;8.80;99.90;;;;;;5491376;26;20228;-44
2024/04/20 07:49:04;;;;;;;7.50;6.03;;;9.10;79.20;;;;;;5491232;26;20517;-44
2024/04/20 07:51:29;;;;;;;8.60;6.77;;;9.30;1.00;;;;;;5491288;26;20321;-44
2024/04/20 07:53:55;;;;;;;13.20;9.93;;;9.70;99.90;;;;;;5491157;26;20813;-44
2024/04/20 07:56:20;;;;;;;12.30;8.40;;;10.10;99.90;;;;;;5488931;26;20220;-44
2024/04/20 07:58:46;;;;;;;6.83;6.10;;;10.40;1.00;;;;;;5484307;26;20283;-44
2024/04/20 08:01:12;;;;;;;13.00;11.27;;;10.60;99.90;;;;;;5485898;26;20228;-44
2024/04/20 08:03:37;;;;;;;6.40;5.50;;;10.70;99.90;;;;;;5487890;26;20312;-44
2024/04/20 08:06:03;;;;;;;8.60;4.03;;;10.70;99.90;;;;;;5488067;26;20294;-44
2024/04/20 08:08:30;;;;;;;4.40;4.00;;;10.70;99.90;;;;;;5488441;26;20213;-44
2024/04/20 08:10:57;;;;;;;7.63;4.10;;;10.90;99.90;;;;;;5489073;26;20689;-44
2024/04/20 08:13:22;;;;;;;4.37;2.80;;;11.20;99.90;;;;;;5491766;26;20807;-44
2024/04/20 08:15:50;;;;;;;6.23;3.73;;;11.40;99.90;;;;;;5491812;26;20583;-44
2024/04/20 08:18:17;;;;;;;5.57;4.20;;;11.50;64.70;;;;;;5491606;26;20279;-44
2024/04/20 08:20:51;;;;;;;8.83;2.97;;;11.10;99.90;;;;;;5490337;26;20510;-44
2024/04/20 08:23:17;;;;;;;7.00;2.93;;;10.50;93.50;;;;;;5457569;26;20583;-44
2024/04/20 08:25:44;;;;;;;9.87;7.87;;;10.10;89.10;;;;;;5489304;26;20449;-44
2024/04/20 08:28:09;;;;;;;7.20;4.53;;;10.10;94.60;;;;;;5489074;26;20506;-44
2024/04/20 08:30:35;;;;;;;5.53;5.00;;;9.90;99.90;;;;;;5486781;26;20466;-44
2024/04/20 08:33:00;;;;;;;3.67;2.93;;;10.10;99.90;;;;;;5485125;26;20243;-44
2024/04/20 08:35:26;;;;;;;3.10;2.70;;;10.10;93.60;;;;;;5487717;26;20208;-44
2024/04/20 08:37:52;;;;;;;3.30;2.67;;;10.20;72.90;;;;;;5453718;26;20724;-44
2024/04/20 08:40:17;;;;;;;4.47;2.70;;;10.40;81.80;;;;;;5487789;26;20232;-44
2024/04/20 08:42:43;;;;;;;4.83;3.00;;;10.50;80.00;;;;;;5488190;26;20228;-44
2024/04/20 08:45:14;;;;;;;2.60;2.30;;;10.70;99.90;;;;;;5492006;26;20228;-44
2024/04/20 08:47:42;;;;;;;3.57;2.80;;;10.80;58.80;;;;;;5490986;26;20611;-44
2024/04/20 08:50:08;;;;;;;6.93;4.10;;;10.60;54.10;;;;;;5490891;26;20449;-44
2024/04/20 08:52:35;;;;;;;3.30;3.00;;;10.50;90.30;;;;;;5428720;26;20871;-44
2024/04/20 08:55:00;;;;;;;5.47;3.63;;;10.30;45.70;;;;;;5459749;26;20506;-44
2024/04/20 08:57:26;;;;;;;4.47;3.97;;;10.10;60.50;;;;;;5490319;26;20724;-44
2024/04/20 08:59:52;;;;;;;4.67;3.20;;;10.30;94.50;;;;;;5488633;26;20213;-44
2024/04/20 09:02:23;;;;;;;4.57;3.40;;;10.50;99.90;;;;;;5488365;26;20251;-44
2024/04/20 09:04:50;;;;;;;3.80;2.90;;;10.60;56.90;;;;;;5487134;26;20438;-44
2024/04/20 09:07:15;;;;;;;4.93;2.50;;;10.40;30.10;;;;;;5457446;26;20446;-44
2024/04/20 09:09:42;;;;;;;2.73;2.27;;;10.30;43.40;;;;;;5488991;26;20563;-44
2024/04/20 09:12:08;;;;;;;4.50;2.80;;;10.20;21.00;;;;;;5458419;26;20221;-45
2024/04/20 09:14:34;;;;;;;3.77;2.70;;;9.80;13.90;;;;;;5487889;26;20485;-44
2024/04/20 09:16:59;;;;;;;4.73;3.70;;;9.50;32.90;;;;;;5488645;26;20228;-43
2024/04/20 09:19:41;;;;;;;4.20;3.57;;;9.10;95.50;;;;;;5486847;26;20722;-44
2024/04/20 09:22:08;;;;;;;5.47;3.20;;;8.70;99.90;;;;;;5487338;26;20450;-43
2024/04/20 09:24:34;;;;;;;4.00;2.93;;;8.60;99.90;;;;;;5488846;26;20774;-44
2024/04/20 09:27:00;;;;;;;3.00;2.70;;;8.10;1.00;;;;;;5486432;26;20438;-44
2024/04/20 09:29:25;;;;;;;3.20;2.87;;;7.90;99.90;;;;;;5487730;26;20213;-43
2024/04/20 09:31:54;;;;;;;3.50;3.20;;;8.30;99.90;;;;;;5490027;26;20774;-43
2024/04/20 09:34:23;;;;;;;4.37;2.80;;;8.40;99.90;;;;;;5491684;26;20233;-46
2024/04/20 09:36:48;;;;;;;4.53;3.37;;;8.90;1.00;;;;;;5490324;26;20458;-44
2024/04/20 09:39:14;;;;;;;8.27;4.10;;;9.10;1.00;;;;;;5490117;26;20773;-44
2024/04/20 09:41:50;;;;;;;4.00;3.60;;;9.00;1.00;;;;;;5491136;26;20213;-44
2024/04/20 09:44:17;;;;;;;4.87;3.57;;;9.30;1.00;;;;;;5490452;26;20518;-43
2024/04/20 09:46:47;;;;;;;5.20;4.70;;;9.50;1.00;;;;;;5487855;26;20578;-45
2024/04/20 09:49:14;;;;;;;8.67;4.10;;;10.30;1.00;;;;;;5486353;26;20489;-45
2024/04/20 09:52:03;;;;;;;7.07;4.40;;;11.50;99.90;;;;;;5488188;26;20610;-44
2024/04/20 09:54:32;;;;;;;7.30;5.73;;;10.80;99.90;;;;;;5490003;26;20899;-45
2024/04/20 09:56:59;;;;;;;5.80;4.63;;;10.40;99.90;;;;;;5490525;26;20446;-45
2024/04/20 09:59:26;;;;;;;9.33;4.57;;;10.20;99.90;;;;;;5459088;26;20449;-45
2024/04/20 10:01:53;;;;;;;4.20;3.80;;;10.30;99.90;;;;;;5459674;26;20522;-45
2024/04/20 10:04:19;;;;;;;5.30;3.27;;;10.20;99.90;;;;;;5458370;26;20466;-45
2024/04/20 10:06:46;;;;;;;4.07;3.20;;;9.60;99.90;;;;;;5458464;26;20512;-45
2024/04/20 10:09:12;;;;;;;4.00;2.77;;;9.40;99.90;;;;;;5456825;26;20560;-45
2024/04/20 10:11:38;;;;;;;7.00;2.97;;;9.20;99.90;;;;;;5456708;26;20442;-45
2024/04/20 10:14:06;;;;;;;7.13;5.10;;;9.20;99.90;;;;;;5489950;26;20719;-45
2024/04/20 10:16:32;;;;;;;4.40;3.10;;;9.10;99.90;;;;;;5489648;26;20518;-45
2024/04/20 10:18:58;;;;;;;3.60;2.60;;;9.00;99.90;;;;;;5489549;26;20461;-45
2024/04/20 10:21:23;;;;;;;3.23;2.60;;;8.90;99.90;;;;;;5487600;26;20758;-45
2024/04/20 10:23:49;;;;;;;4.90;2.53;;;8.80;99.90;;;;;;5484918;26;20299;-45
2024/04/20 10:26:31;;;;;;;3.03;2.73;;;8.70;99.90;;;;;;5489754;26;20329;-45
2024/04/20 10:29:07;;;;;;;3.57;2.80;;;8.70;99.90;;;;;;5489607;26;20233;-45
2024/04/20 10:31:33;;;;;;;3.73;2.80;;;8.90;99.90;;;;;;5489327;26;21006;-45
2024/04/20 10:33:58;;;;;;;3.47;2.70;;;9.20;99.90;;;;;;5456052;26;20474;-45
2024/04/20 10:36:28;;;;;;;4.10;2.90;;;9.50;94.10;;;;;;5487170;26;20705;-46
2024/04/20 10:39:06;;;;;;;3.13;2.67;;;9.80;57.10;;;;;;5457077;26;20220;-45
2024/04/20 10:41:39;;;;;;;3.50;2.97;;;10.20;31.60;;;;;;5489468;26;20844;-45
2024/04/20 10:44:12;;;;;;;7.33;3.17;;;10.40;23.60;;;;;;5490792;26;20532;-45
2024/04/20 10:46:39;;;;;;;4.00;2.87;;;10.30;5.00;;;;;;5490516;26;20501;-45
2024/04/20 10:49:10;;;;;;;3.37;2.90;;;10.20;1.00;;;;;;5457927;26;20481;-45
2024/04/20 10:51:36;;;;;;;3.23;2.80;;;10.00;7.60;;;;;;5488792;26;20461;-45
2024/04/20 10:54:02;;;;;;;4.60;2.77;;;9.80;8.10;;;;;;5489136;26;20506;-45
2024/04/20 10:56:35;;;;;;;3.67;2.33;;;9.70;4.30;;;;;;5483873;26;20284;-45
2024/04/20 10:59:04;;;;;;;2.60;2.40;;;9.60;1.00;;;;;;5488370;26;20461;-44
2024/04/20 11:01:31;;;;;;;3.50;2.73;;;9.50;1.00;;;;;;5488341;26;20457;-45
2024/04/20 11:03:57;;;;;;;3.30;2.23;;;9.50;1.00;;;;;;5491143;26;20461;-45
2024/04/20 11:06:22;;;;;;;2.90;2.57;;;9.50;1.00;;;;;;5489776;26;20955;-45
2024/04/20 11:08:48;;;;;;;3.27;2.50;;;9.60;1.00;;;;;;5488015;26;20446;-45
2024/04/20 11:11:14;;;;;;;2.53;2.30;;;9.80;1.00;;;;;;5456120;26;20263;-45
2024/04/20 11:13:41;;;;;;;3.20;2.10;;;9.90;1.00;;;;;;5488145;26;20267;-45
2024/04/20 11:16:07;;;;;;;4.10;2.30;;;10.00;1.00;;;;;;5491304;26;20449;-44
2024/04/20 11:18:33;;;;;;;4.13;2.77;;;9.90;1.00;;;;;;5492872;26;20515;-45
2024/04/20 11:21:01;;;;;;;2.53;2.33;;;10.00;1.00;;;;;;5494191;26;20720;-45
2024/04/20 11:23:28;;;;;;;4.17;2.57;;;10.30;1.00;;;;;;5493794;26;20251;-45
2024/04/20 11:25:56;;;;;;;4.07;2.70;;;10.50;1.00;;;;;;5492159;26;20450;-45
2024/04/20 11:28:25;;;;;;;2.67;2.27;;;10.70;1.00;;;;;;5489467;26;20458;-45
2024/04/20 11:30:51;;;;;;;3.70;2.60;;;10.80;1.00;;;;;;5457160;26;20895;-45
2024/04/20 11:33:17;;;;;;;3.00;2.13;;;10.80;1.00;;;;;;5459158;26;20457;-45
2024/04/20 11:35:50;;;;;;;4.03;2.23;;;10.70;1.00;;;;;;5492450;26;20498;-45
2024/04/20 11:38:16;;;;;;;3.97;2.83;;;10.70;1.00;;;;;;5458876;26;20209;-45
2024/04/20 11:40:49;;;;;;;3.37;2.60;;;10.70;1.00;;;;;;5493289;26;20457;-45
2024/04/20 11:43:20;;;;;;;4.87;2.30;;;10.60;1.00;;;;;;5490645;26;20232;-45
2024/04/20 11:45:46;;;;;;;3.10;1.90;;;10.50;1.00;;;;;;5492507;26;20775;-45
2024/04/20 11:48:12;;;;;;;2.37;2.17;;;10.80;1.00;;;;;;5490912;26;20449;-43
2024/04/20 11:50:40;;;;;;;2.37;2.17;;;11.10;1.00;;;;;;5489330;26;20434;-44
2024/04/20 11:55:50;;;;;;;3.90;2.20;;;11.50;1.00;;;;;;5491735;26;20508;-44
2024/04/20 11:58:16;;;;;;;2.47;2.27;;;11.60;1.00;;;;;;5491217;26;20469;-43
2024/04/20 12:00:42;;;;;;;2.90;2.40;;;11.70;1.00;;;;;;5458311;26;20280;-44
2024/04/20 12:03:07;;;;;;;2.97;2.60;;;11.80;1.00;;;;;;5490567;26;20314;-44
2024/04/20 12:05:33;;;;;;;4.00;2.53;;;12.00;1.00;;;;;;5491469;26;20328;-44
2024/04/20 12:07:59;;;;;;;3.73;2.63;;;12.60;1.00;;;;;;5492554;26;20693;-44
2024/04/20 12:10:27;;;;;;;3.70;2.80;;;13.10;1.00;;;;;;5489428;26;20550;-45
2024/04/20 12:12:53;;;;;;;4.63;2.57;;;13.80;1.00;;;;;;5458737;26;20259;-44
2024/04/20 12:15:18;;;;;;;4.53;3.30;;;14.00;1.00;;;;;;5458077;26;20516;-44
2024/04/20 12:17:44;;;;;;;3.10;2.80;;;14.20;1.00;;;;;;5485294;26;20716;-44
2024/04/20 12:20:12;;;;;;;5.70;3.07;;;14.10;1.00;;;;;;5486388;26;20316;-44
2024/04/20 12:22:38;;;;;;;3.97;2.70;;;14.10;1.00;;;;;;5486067;26;20663;-44
2024/04/20 12:25:04;;;;;;;4.00;2.80;;;14.20;1.00;;;;;;5456364;26;20542;-45
2024/04/20 12:27:30;;;;;;;3.10;2.63;;;14.10;1.00;;;;;;5482750;26;20478;-45
2024/04/20 12:29:56;;;;;;;3.47;2.83;;;14.20;1.00;;;;;;5483213;26;20446;-45
2024/04/20 12:32:24;;;;;;;3.30;3.00;;;14.70;1.00;;;;;;5513697;26;20491;-45
2024/04/20 12:34:49;;;;;;;2.73;2.30;;;15.80;1.00;;;;;;5492259;26;20220;-45
2024/04/20 12:37:19;;;;;;;3.00;2.30;;;17.50;1.00;;;;;;5523380;26;20811;-45
2024/04/20 12:39:45;;;;;;;3.73;2.50;;;19.20;1.00;;;;;;5524824;26;20271;-45
2024/04/20 12:42:10;;;;;;;2.83;2.40;;;20.70;1.00;;;;;;5527851;26;20448;-45
2024/04/20 12:44:36;;;;;;;5.83;2.40;;;21.50;1.00;;;;;;5497385;26;20452;-45
2024/04/20 12:47:02;;;;;;;2.30;2.10;;;21.50;1.00;;;;;;5529852;26;20216;-45
2024/04/20 12:49:28;;;;;;;2.00;1.80;;;22.20;1.00;;;;;;5528310;26;20274;-45
2024/04/20 12:51:54;;;;;;;2.13;1.60;;;23.10;1.00;;;;;;5529334;26;20945;-44
2024/04/20 12:54:20;;;;;;;3.90;2.30;;;23.70;1.00;;;;;;5526305;26;20453;-44
2024/04/20 12:56:46;;;;;;;3.10;1.97;;;23.60;1.00;;;;;;5525477;26;20215;-45
2024/04/20 12:59:11;;;;;;;3.30;2.30;;;22.60;1.00;;;;;;5525232;26;20215;-44